createdAt,value
2023-06-20T00:00:56.149Z,59.31
2023-06-20T00:04:00.032Z,59.28
2023-06-20T00:07:03.903Z,58.44
2023-06-20T00:10:10.131Z,58.52
2023-06-20T00:13:13.968Z,58.76
2023-06-20T00:16:22.312Z,59.67
2023-06-20T00:19:26.188Z,58.61
2023-06-20T00:22:30.063Z,58.85
2023-06-20T00:25:33.724Z,58.51
2023-06-20T00:28:37.428Z,58.91
2023-06-20T00:31:42.667Z,58.70
2023-06-20T00:34:46.396Z,58.74
2023-06-20T00:37:51.678Z,58.58
2023-06-20T00:40:55.479Z,59.27
2023-06-20T00:43:59.335Z,59.34
2023-06-20T00:47:05.266Z,59.53
2023-06-20T00:50:10.222Z,59.43
2023-06-20T00:53:14.160Z,59.07
2023-06-20T00:56:18.097Z,60.20
2023-06-20T00:59:22.773Z,60.33
2023-06-20T01:02:28.239Z,60.97
2023-06-20T01:05:32.774Z,60.75
2023-06-20T01:08:42.577Z,59.96
2023-06-20T01:11:53.027Z,60.70
2023-06-20T01:15:04.706Z,60.77
2023-06-20T01:18:16.984Z,60.97
2023-06-20T01:21:23.966Z,61.11
2023-06-20T01:24:38.581Z,62.13
2023-06-20T01:27:49.042Z,62.38
2023-06-20T01:30:58.707Z,61.82
2023-06-20T01:34:09.532Z,61.90
2023-06-20T01:37:17.655Z,62.28
2023-06-20T01:40:24.861Z,62.62
2023-06-20T01:43:32.142Z,62.44
2023-06-20T01:46:36.580Z,64.16
2023-06-20T01:49:43.902Z,63.44
2023-06-20T01:52:51.129Z,63.56
2023-06-20T01:55:57.788Z,63.16
2023-06-20T01:59:03.611Z,63.68
2023-06-20T02:02:09.261Z,63.68
2023-06-20T02:05:14.783Z,63.12
2023-06-20T02:08:20.680Z,63.11
2023-06-20T02:11:26.068Z,63.95
2023-06-20T02:14:30.379Z,62.91
2023-06-20T02:17:35.853Z,63.13
2023-06-20T02:20:39.666Z,63.25
2023-06-20T02:23:48.792Z,63.10
2023-06-20T02:26:55.647Z,62.99
2023-06-20T02:30:00.980Z,62.79
2023-06-20T02:33:07.707Z,63.20
2023-06-20T02:36:12.709Z,63.34
2023-06-20T02:39:16.852Z,63.90
2023-06-20T02:42:22.333Z,63.17
2023-06-20T02:45:26.474Z,62.52
2023-06-20T02:48:37.165Z,62.46
2023-06-20T02:51:52.904Z,62.52
2023-06-20T02:55:06.737Z,63.24
2023-06-20T02:58:15.125Z,63.68
2023-06-20T03:01:25.667Z,63.44
2023-06-20T03:04:33.763Z,63.43
2023-06-20T03:07:38.571Z,63.46
2023-06-20T03:10:44.227Z,62.79
2023-06-20T03:13:50.437Z,62.46
2023-06-20T03:16:54.444Z,62.50
2023-06-20T03:19:58.803Z,61.77
2023-06-20T03:23:04.143Z,60.98
2023-06-20T03:26:09.430Z,60.50
2023-06-20T03:29:14.818Z,60.44
2023-06-20T03:32:19.134Z,60.01
2023-06-20T03:35:23.138Z,61.25
2023-06-20T03:38:27.121Z,60.81
2023-06-20T03:41:31.127Z,60.46
2023-06-20T03:44:40.297Z,60.71
2023-06-20T03:47:44.222Z,60.07
2023-06-20T03:50:48.438Z,59.88
2023-06-20T03:53:52.826Z,58.73
2023-06-20T03:56:56.638Z,58.56
2023-06-20T04:00:02.069Z,58.16
2023-06-20T04:03:07.398Z,58.56
2023-06-20T04:06:11.331Z,57.93
2023-06-20T04:09:15.176Z,57.43
2023-06-20T04:12:19.009Z,57.73
2023-06-20T04:15:24.620Z,56.49
2023-06-20T04:18:30.913Z,55.94
2023-06-20T04:21:35.392Z,56.02
2023-06-20T04:24:39.139Z,56.12
2023-06-20T04:27:44.104Z,56.32
2023-06-20T04:30:52.167Z,57.05
2023-06-20T04:33:58.515Z,56.03
2023-06-20T04:37:03.765Z,56.93
2023-06-20T04:40:10.282Z,56.67
2023-06-20T04:43:14.797Z,56.20
2023-06-20T04:46:20.507Z,55.47
2023-06-20T04:49:25.032Z,56.38
2023-06-20T04:52:29.113Z,56.07
2023-06-20T04:55:32.887Z,54.82
2023-06-20T04:58:38.317Z,55.56
2023-06-20T05:01:43.702Z,55.30
2023-06-20T05:04:47.686Z,54.79
2023-06-20T05:07:51.567Z,53.87
2023-06-20T05:10:55.450Z,53.69
2023-06-20T05:13:59.233Z,53.92
2023-06-20T05:17:05.114Z,53.71
2023-06-20T05:20:10.429Z,52.42
2023-06-20T05:23:14.355Z,52.60
2023-06-20T05:26:18.263Z,51.94
2023-06-20T05:29:22.237Z,51.45
2023-06-20T05:32:27.840Z,51.97
2023-06-20T05:35:31.987Z,51.04
2023-06-20T05:38:38.316Z,50.19
2023-06-20T05:41:43.482Z,50.52
2023-06-20T05:44:47.377Z,48.86
2023-06-20T05:47:52.765Z,47.13
2023-06-20T05:50:56.545Z,46.66
2023-06-20T05:54:00.579Z,45.88
2023-06-20T05:57:04.597Z,46.06
2023-06-20T06:00:14.267Z,45.50
2023-06-20T06:03:25.597Z,45.08
2023-06-20T06:06:29.475Z,45.24
2023-06-20T06:09:33.307Z,44.64
2023-06-20T06:12:37.882Z,44.29
2023-06-20T06:15:50.125Z,44.16
2023-06-20T06:19:04.524Z,43.83
2023-06-20T06:22:08.357Z,43.80
2023-06-20T06:25:12.343Z,43.31
2023-06-20T06:28:16.671Z,42.90
2023-06-20T06:31:27.917Z,42.33
2023-06-20T06:34:33.552Z,42.00
2023-06-20T06:37:37.821Z,41.05
2023-06-20T06:40:41.833Z,40.50
2023-06-20T06:43:46.003Z,40.84
2023-06-20T06:46:49.963Z,40.59
2023-06-20T06:49:55.285Z,39.84
2023-06-20T06:52:59.311Z,39.67
2023-06-20T06:56:03.118Z,39.50
2023-06-20T06:59:06.983Z,39.57
2023-06-20T07:02:10.897Z,39.11
2023-06-20T07:05:16.262Z,39.32
2023-06-20T07:08:20.340Z,38.92
2023-06-20T07:11:25.948Z,39.78
2023-06-20T07:14:30.163Z,39.05
2023-06-20T07:17:34.055Z,38.42
2023-06-20T07:20:39.280Z,38.54
2023-06-20T07:23:43.133Z,37.62
2023-06-20T07:26:47.022Z,37.24
2023-06-20T07:29:50.840Z,36.92
2023-06-20T07:32:54.740Z,36.51
2023-06-20T07:36:01.542Z,37.31
2023-06-20T07:39:05.473Z,37.57
2023-06-20T07:42:10.125Z,37.36
2023-06-20T07:45:13.964Z,38.02
2023-06-20T07:48:17.814Z,37.64
2023-06-20T07:51:23.712Z,37.62
2023-06-20T07:54:28.009Z,36.97
2023-06-20T07:57:32.015Z,37.06
2023-06-20T08:00:35.840Z,36.60
2023-06-20T08:03:39.848Z,36.38
2023-06-20T08:06:45.304Z,36.25
2023-06-20T08:09:49.253Z,36.79
2023-06-20T08:12:53.389Z,37.26
2023-06-20T08:15:57.152Z,37.72
2023-06-20T08:19:01.031Z,36.89
2023-06-20T08:22:06.995Z,37.89
2023-06-20T08:25:11.648Z,37.02
2023-06-20T08:28:15.795Z,37.50
2023-06-20T08:31:19.815Z,36.27
2023-06-20T08:34:23.651Z,35.54
2023-06-20T08:37:28.933Z,35.03
2023-06-20T08:40:33.267Z,34.56
2023-06-20T08:43:37.359Z,34.86
2023-06-20T08:46:41.328Z,34.70
2023-06-20T08:49:45.736Z,34.24
2023-06-20T08:52:55.458Z,33.22
2023-06-20T08:56:00.075Z,32.88
2023-06-20T08:59:03.898Z,31.65
2023-06-20T09:02:11.490Z,31.48
2023-06-20T09:05:15.370Z,31.80
2023-06-20T09:08:20.737Z,31.57
2023-06-20T09:11:27.908Z,31.55
2023-06-20T09:14:32.488Z,31.23
2023-06-20T09:17:36.444Z,30.94
2023-06-20T09:20:41.796Z,30.50
2023-06-20T09:23:47.171Z,30.35
2023-06-20T09:26:51.087Z,30.43
2023-06-20T09:29:57.890Z,29.01
2023-06-20T09:33:06.134Z,28.13
2023-06-20T09:36:14.325Z,28.99
2023-06-20T09:39:22.045Z,29.10
2023-06-20T09:42:26.367Z,28.57
2023-06-20T09:45:30.297Z,28.92
2023-06-20T09:48:36.867Z,29.77
2023-06-20T09:51:45.556Z,31.42
2023-06-20T09:54:55.965Z,32.28
2023-06-20T09:58:01.330Z,33.03
2023-06-20T10:01:06.828Z,33.58
2023-06-20T10:04:10.957Z,33.12
2023-06-20T10:07:16.463Z,32.82
2023-06-20T10:10:21.810Z,32.12
2023-06-20T10:13:26.016Z,32.13
2023-06-20T10:16:31.010Z,31.67
2023-06-20T10:19:49.127Z,30.69
2023-06-20T10:22:53.058Z,30.79
2023-06-20T10:25:59.708Z,30.04
2023-06-20T10:29:05.337Z,29.51
2023-06-20T10:32:10.890Z,28.80
2023-06-20T10:35:17.796Z,29.26
2023-06-20T10:38:21.811Z,29.53
2023-06-20T10:41:28.116Z,29.93
2023-06-20T10:44:32.011Z,30.74
2023-06-20T10:47:37.142Z,30.50
2023-06-20T10:50:40.980Z,30.82
2023-06-20T10:53:44.806Z,30.46
2023-06-20T10:56:50.278Z,30.80
2023-06-20T10:59:54.149Z,30.68
2023-06-20T11:02:58.807Z,30.40
2023-06-20T11:06:03.418Z,29.63
2023-06-20T11:09:07.735Z,28.96
2023-06-20T11:12:13.191Z,28.68
2023-06-20T11:15:25.345Z,29.07
2023-06-20T11:18:29.310Z,27.63
2023-06-20T11:21:33.410Z,28.00
2023-06-20T11:24:38.040Z,27.76
2023-06-20T11:27:44.889Z,27.33
2023-06-20T11:30:49.075Z,27.68
2023-06-20T11:34:04.320Z,28.05
2023-06-20T11:37:08.548Z,28.18
2023-06-20T11:40:14.965Z,28.74
2023-06-20T11:43:25.352Z,29.54
2023-06-20T11:46:29.916Z,28.79
2023-06-20T11:49:34.569Z,28.33
2023-06-20T11:52:42.609Z,27.77
2023-06-20T11:55:50.632Z,27.86
2023-06-20T11:58:56.205Z,27.92
2023-06-20T12:02:00.216Z,28.65
2023-06-20T12:05:06.014Z,27.99
2023-06-20T12:08:10.108Z,28.27
2023-06-20T12:11:15.674Z,28.40
2023-06-20T12:14:21.636Z,28.99
2023-06-20T12:17:26.057Z,28.22
2023-06-20T12:20:36.915Z,28.36
2023-06-20T12:23:42.426Z,27.10
2023-06-20T12:26:48.593Z,26.38
2023-06-20T12:29:53.923Z,25.70
2023-06-20T12:32:59.049Z,26.43
2023-06-20T12:36:03.044Z,26.61
2023-06-20T12:39:07.262Z,27.18
2023-06-20T12:42:13.985Z,27.64
2023-06-20T12:45:19.523Z,27.18
2023-06-20T12:48:24.886Z,26.93
2023-06-20T12:51:29.082Z,26.95
2023-06-20T12:54:32.986Z,25.75
2023-06-20T12:57:36.787Z,25.86
2023-06-20T13:00:43.093Z,26.05
2023-06-20T13:03:47.178Z,25.81
2023-06-20T13:06:52.918Z,25.96
2023-06-20T13:09:56.740Z,26.23
2023-06-20T13:13:00.561Z,26.46
2023-06-20T13:16:05.934Z,26.35
2023-06-20T13:19:09.872Z,26.75
2023-06-20T13:22:14.127Z,26.01
2023-06-20T13:25:18.220Z,26.05
2023-06-20T13:28:22.947Z,26.61
2023-06-20T13:31:28.558Z,27.61
2023-06-20T13:34:33.017Z,28.10
2023-06-20T13:37:38.528Z,27.46
2023-06-20T13:40:42.431Z,27.00
2023-06-20T13:43:47.214Z,26.58
2023-06-20T13:46:52.929Z,27.44
2023-06-20T13:49:56.773Z,27.92
2023-06-20T13:53:00.565Z,27.62
2023-06-20T13:56:04.387Z,27.70
2023-06-20T13:59:08.264Z,26.99
2023-06-20T14:02:13.717Z,26.12
2023-06-20T14:05:20.814Z,36.39
2023-06-20T14:08:25.350Z,38.38
2023-06-20T14:11:29.961Z,40.08
2023-06-20T14:14:33.848Z,41.07
2023-06-20T14:17:39.650Z,42.50
2023-06-20T14:20:43.709Z,43.27
2023-06-20T14:23:48.203Z,44.38
2023-06-20T14:26:52.130Z,44.70
2023-06-20T14:29:56.773Z,46.32
2023-06-20T14:33:03.021Z,47.15
2023-06-20T14:36:07.239Z,45.66
2023-06-20T14:39:12.066Z,46.40
2023-06-20T14:42:17.177Z,45.60
2023-06-20T14:45:22.282Z,45.04
2023-06-20T14:48:27.816Z,45.52
2023-06-20T14:51:31.699Z,44.01
2023-06-20T14:54:35.598Z,44.03
2023-06-20T14:57:39.439Z,44.35
2023-06-20T15:00:43.218Z,45.50
2023-06-20T15:03:48.952Z,44.53
2023-06-20T15:06:52.950Z,43.98
2023-06-20T15:09:56.819Z,43.17
2023-06-20T15:13:00.688Z,43.65
2023-06-20T15:16:04.720Z,43.34
2023-06-20T15:19:10.075Z,43.44
2023-06-20T15:22:14.127Z,43.48
2023-06-20T15:25:18.289Z,43.31
2023-06-20T15:28:22.212Z,43.30
2023-06-20T15:31:26.062Z,43.87
2023-06-20T15:34:33.026Z,43.99
2023-06-20T15:37:36.885Z,43.38
2023-06-20T15:40:40.836Z,43.32
2023-06-20T15:43:46.020Z,43.60
2023-06-20T15:46:53.949Z,43.97
2023-06-20T15:49:59.866Z,44.20
2023-06-20T15:53:03.781Z,43.75
2023-06-20T15:56:07.630Z,44.62
2023-06-20T15:59:11.432Z,44.32
2023-06-20T16:02:20.086Z,44.76
2023-06-20T16:05:25.578Z,44.20
2023-06-20T16:08:29.405Z,44.24
2023-06-20T16:11:33.307Z,43.50
2023-06-20T16:14:37.566Z,43.75
2023-06-20T16:17:41.667Z,43.76
2023-06-20T16:20:49.131Z,43.37
2023-06-20T16:23:53.068Z,44.30
2023-06-20T16:26:57.533Z,44.14
2023-06-20T16:30:02.421Z,44.52
2023-06-20T16:33:08.118Z,44.31
2023-06-20T16:36:13.759Z,44.58
2023-06-20T16:39:17.708Z,45.21
2023-06-20T16:42:21.612Z,44.77
2023-06-20T16:45:25.399Z,44.76
2023-06-20T16:48:29.223Z,45.47
2023-06-20T16:51:35.790Z,45.38
2023-06-20T16:54:39.701Z,46.04
2023-06-20T16:57:43.538Z,45.05
2023-06-20T17:00:47.456Z,44.44
2023-06-20T17:03:51.514Z,45.39
2023-06-20T17:06:56.777Z,45.45
2023-06-20T17:10:00.605Z,46.69
2023-06-20T17:13:04.695Z,47.45
2023-06-20T17:16:08.466Z,47.14
2023-06-20T17:19:12.338Z,47.18
2023-06-20T17:22:17.904Z,46.57
2023-06-20T17:25:22.586Z,46.35
2023-06-20T17:28:27.463Z,46.21
2023-06-20T17:31:31.446Z,45.91
2023-06-20T17:34:35.493Z,46.25
2023-06-20T17:37:40.994Z,46.55
2023-06-20T17:40:45.004Z,47.13
2023-06-20T17:43:50.289Z,47.52
2023-06-20T17:46:57.115Z,47.63
2023-06-20T17:50:01.330Z,47.95
2023-06-20T17:53:06.766Z,48.19
2023-06-20T17:56:11.435Z,48.28
2023-06-20T17:59:15.466Z,48.71
2023-06-20T18:02:19.431Z,48.66
2023-06-20T18:05:23.291Z,47.97
2023-06-20T18:08:28.591Z,48.60
2023-06-20T18:11:32.574Z,48.81
2023-06-20T18:14:37.812Z,49.29
2023-06-20T18:17:41.965Z,49.91
2023-06-20T18:20:45.827Z,49.98
2023-06-20T18:23:51.105Z,50.08
2023-06-20T18:26:54.986Z,50.27
2023-06-20T18:29:58.890Z,50.60
2023-06-20T18:33:02.858Z,50.52
2023-06-20T18:36:07.056Z,50.37
2023-06-20T18:39:12.482Z,51.28
2023-06-20T18:42:17.027Z,50.79
2023-06-20T18:45:20.973Z,51.89
2023-06-20T18:48:24.886Z,51.74
2023-06-20T18:51:28.748Z,51.90
2023-06-20T18:54:34.166Z,52.08
2023-06-20T18:57:38.084Z,52.73
2023-06-20T19:00:42.356Z,52.30
2023-06-20T19:03:46.911Z,52.64
2023-06-20T19:06:50.876Z,52.58
2023-06-20T19:09:56.115Z,52.78
2023-06-20T19:13:00.074Z,53.46
2023-06-20T19:16:03.884Z,53.40
2023-06-20T19:19:07.881Z,54.27
2023-06-20T19:22:11.766Z,54.02
2023-06-20T19:25:17.096Z,54.39
2023-06-20T19:28:20.986Z,53.97
2023-06-20T19:31:24.968Z,53.49
2023-06-20T19:34:28.929Z,53.27
2023-06-20T19:37:32.857Z,52.51
2023-06-20T19:40:38.138Z,51.75
2023-06-20T19:43:42.003Z,51.70
2023-06-20T19:46:46.340Z,51.65
2023-06-20T19:49:50.227Z,51.28
2023-06-20T19:52:54.129Z,51.01
2023-06-20T19:55:59.566Z,51.52
2023-06-20T19:59:03.450Z,53.22
2023-06-20T20:02:10.717Z,53.32
2023-06-20T20:05:14.547Z,53.77
2023-06-20T20:08:19.118Z,53.41
2023-06-20T20:11:24.440Z,53.88
2023-06-20T20:14:28.280Z,53.81
2023-06-20T20:17:32.133Z,53.76
2023-06-20T20:20:36.095Z,53.07
2023-06-20T20:23:44.115Z,53.03
2023-06-20T20:26:52.307Z,52.45
2023-06-20T20:29:56.186Z,52.73
2023-06-20T20:33:00.515Z,51.83
2023-06-20T20:36:04.481Z,51.73
2023-06-20T20:39:08.570Z,52.32
2023-06-20T20:42:14.220Z,51.82
2023-06-20T20:45:19.993Z,53.26
2023-06-20T20:48:24.768Z,55.69
2023-06-20T20:51:29.137Z,55.97
2023-06-20T20:54:35.152Z,56.71
2023-06-20T20:57:41.934Z,58.16
2023-06-20T21:00:47.668Z,58.78
2023-06-20T21:03:51.867Z,59.53
2023-06-20T21:06:55.772Z,57.34
2023-06-20T21:09:59.584Z,58.25
2023-06-20T21:13:04.945Z,57.65
2023-06-20T21:16:12.990Z,57.92
2023-06-20T21:19:16.843Z,58.93
2023-06-20T21:22:21.297Z,60.39
2023-06-20T21:25:25.579Z,61.29
2023-06-20T21:28:30.896Z,61.76
2023-06-20T21:31:34.870Z,63.61
2023-06-20T21:34:38.788Z,64.21
2023-06-20T21:37:42.649Z,63.63
2023-06-20T21:40:47.371Z,63.04
2023-06-20T21:43:52.724Z,64.36
2023-06-20T21:46:56.670Z,63.92
2023-06-20T21:50:00.586Z,63.48
2023-06-20T21:53:04.350Z,62.54
2023-06-20T21:56:08.639Z,63.72
2023-06-20T21:59:14.261Z,62.53
2023-06-20T22:02:18.138Z,64.25
2023-06-20T22:05:21.978Z,64.40
2023-06-20T22:08:28.033Z,62.58
2023-06-20T22:11:31.883Z,62.43
2023-06-20T22:14:37.144Z,61.89
2023-06-20T22:17:41.241Z,61.67
2023-06-20T22:20:45.330Z,63.55
2023-06-20T22:23:49.434Z,62.46
2023-06-20T22:26:53.387Z,62.10
2023-06-20T22:29:58.742Z,62.30
2023-06-20T22:33:04.042Z,62.97
2023-06-20T22:36:08.118Z,63.16
2023-06-20T22:39:11.933Z,63.38
2023-06-20T22:42:15.837Z,62.70
2023-06-20T22:45:21.204Z,62.71
2023-06-20T22:48:25.082Z,62.02
2023-06-20T22:51:32.224Z,62.53
2023-06-20T22:54:36.272Z,62.40
2023-06-20T22:57:40.045Z,62.90
2023-06-20T23:00:45.406Z,63.60
2023-06-20T23:03:49.665Z,63.87
2023-06-20T23:06:53.605Z,63.54
2023-06-20T23:09:57.636Z,63.95
2023-06-20T23:13:01.477Z,64.27
2023-06-20T23:16:07.107Z,64.51
2023-06-20T23:19:11.065Z,64.75
2023-06-20T23:22:15.605Z,64.58
2023-06-20T23:25:19.633Z,65.09
2023-06-20T23:28:24.266Z,64.25
2023-06-20T23:31:33.383Z,64.40
2023-06-20T23:34:37.195Z,64.97
2023-06-20T23:37:41.381Z,65.12
2023-06-20T23:40:45.379Z,65.61
2023-06-20T23:43:49.290Z,65.81
2023-06-20T23:46:54.797Z,65.61
2023-06-20T23:49:58.654Z,65.66
2023-06-20T23:53:02.592Z,65.31
2023-06-20T23:56:06.640Z,66.03
2023-06-20T23:59:12.090Z,66.99
